sensor_id;sensor_type;location;lat;lon;timestamp;P1;P2;P0
74432;PMS7003;62865;53.146;23.172;2023-05-18T00:01:51;2.4;1.8;1.2
74432;PMS7003;62865;53.146;23.172;2023-05-18T00:06:59;3.4;2.4;1.4
74432;PMS7003;62865;53.146;23.172;2023-05-18T00:11:37;3;2;1
74432;PMS7003;62865;53.146;23.172;2023-05-18T00:16:37;2.4;1.8;1
74432;PMS7003;62865;53.146;23.172;2023-05-18T00:22:01;3.8;2;1.2
74432;PMS7003;62865;53.146;23.172;2023-05-18T00:26:55;3.2;2;1.4
74432;PMS7003;62865;53.146;23.172;2023-05-18T00:32:15;4.2;2.2;1.2
74432;PMS7003;62865;53.146;23.172;2023-05-18T00:37:01;2.6;1.8;1.2
74432;PMS7003;62865;53.146;23.172;2023-05-18T00:42:15;2.8;2.2;1.2
74432;PMS7003;62865;53.146;23.172;2023-05-18T00:46:59;2.4;2.2;1
74432;PMS7003;62865;53.146;23.172;2023-05-18T00:51:37;2.4;1.4;1
74432;PMS7003;62865;53.146;23.172;2023-05-18T00:56:51;3.6;2;1
74432;PMS7003;62865;53.146;23.172;2023-05-18T01:01:29;3;2.6;1.4
74432;PMS7003;62865;53.146;23.172;2023-05-18T01:06:27;5.2;3.6;2.2
74432;PMS7003;62865;53.146;23.172;2023-05-18T01:11:54;4.2;2.6;1.8
74432;PMS7003;62865;53.146;23.172;2023-05-18T01:17:15;3.2;2.6;1.8
74432;PMS7003;62865;53.146;23.172;2023-05-18T01:21:31;4.8;2.6;1.6
74432;PMS7003;62865;53.146;23.172;2023-05-18T01:26:49;3;2.2;1.8
74432;PMS7003;62865;53.146;23.172;2023-05-18T01:31:53;4.2;2.2;1.8
74432;PMS7003;62865;53.146;23.172;2023-05-18T01:36:37;3;2.4;1.2
74432;PMS7003;62865;53.146;23.172;2023-05-18T01:41:46;2.4;2;1.6
74432;PMS7003;62865;53.146;23.172;2023-05-18T01:46:31;3;2.6;1.8
74432;PMS7003;62865;53.146;23.172;2023-05-18T01:51:51;4.4;3;2.2
74432;PMS7003;62865;53.146;23.172;2023-05-18T01:57:05;3;2.8;2
74432;PMS7003;62865;53.146;23.172;2023-05-18T02:02:13;5.4;4;2.4
74432;PMS7003;62865;53.146;23.172;2023-05-18T02:06:51;3.6;3;1.8
74432;PMS7003;62865;53.146;23.172;2023-05-18T02:12:13;3.4;2.8;2
74432;PMS7003;62865;53.146;23.172;2023-05-18T02:17:13;3.4;2.6;2
74432;PMS7003;62865;53.146;23.172;2023-05-18T02:21:59;4.2;2.6;1.8
74432;PMS7003;62865;53.146;23.172;2023-05-18T02:26:49;3;2;1.4
74432;PMS7003;62865;53.146;23.172;2023-05-18T02:31:43;3.2;2.6;2
74432;PMS7003;62865;53.146;23.172;2023-05-18T02:36:49;2.2;2.2;1.6
74432;PMS7003;62865;53.146;23.172;2023-05-18T02:41:29;3;2.8;1.8
74432;PMS7003;62865;53.146;23.172;2023-05-18T02:46:49;1.8;1.3;0.8
74432;PMS7003;62865;53.146;23.172;2023-05-18T02:52:15;1.8;1.6;1.6
74432;PMS7003;62865;53.146;23.172;2023-05-18T02:57:15;2.2;1.8;1
74432;PMS7003;62865;53.146;23.172;2023-05-18T03:01:43;2.3;1.7;1.7
74432;PMS7003;62865;53.146;23.172;2023-05-18T03:06:27;3.4;2;1.4
74432;PMS7003;62865;53.146;23.172;2023-05-18T03:11:29;2;1.2;0.8
74432;PMS7003;62865;53.146;23.172;2023-05-18T03:16:39;2.4;1.2;0.8
74432;PMS7003;62865;53.146;23.172;2023-05-18T03:21:37;1.8;1.3;0.5
74432;PMS7003;62865;53.146;23.172;2023-05-18T03:26:49;2;1.3;0.5
74432;PMS7003;62865;53.146;23.172;2023-05-18T03:31:27;2.4;1.4;1
74432;PMS7003;62865;53.146;23.172;2023-05-18T03:37:13;2.2;1.8;1
74432;PMS7003;62865;53.146;23.172;2023-05-18T03:41:37;2;1.2;1.2
74432;PMS7003;62865;53.146;23.172;2023-05-18T03:47:13;3;2.4;1.4
74432;PMS7003;62865;53.146;23.172;2023-05-18T03:51:41;2.6;1.8;1
74432;PMS7003;62865;53.146;23.172;2023-05-18T03:57:13;2.4;1.6;1
74432;PMS7003;62865;53.146;23.172;2023-05-18T04:01:27;2;1.8;1
74432;PMS7003;62865;53.146;23.172;2023-05-18T04:07:05;3.2;1.8;1.4
74432;PMS7003;62865;53.146;23.172;2023-05-18T04:11:49;3.2;1.6;1.4
74432;PMS7003;62865;53.146;23.172;2023-05-18T04:17:13;1.6;1.6;1
74432;PMS7003;62865;53.146;23.172;2023-05-18T04:21:27;3.2;2;1
74432;PMS7003;62865;53.146;23.172;2023-05-18T04:26:35;1.6;1.6;1
74432;PMS7003;62865;53.146;23.172;2023-05-18T04:32:13;2.5;1.8;1
74432;PMS7003;62865;53.146;23.172;2023-05-18T04:36:27;2.4;1.8;1
74432;PMS7003;62865;53.146;23.172;2023-05-18T04:42:05;3.4;2.8;2
74432;PMS7003;62865;53.146;23.172;2023-05-18T04:47:13;2.2;1.8;1
74432;PMS7003;62865;53.146;23.172;2023-05-18T04:51:27;2.6;2;1.2
74432;PMS7003;62865;53.146;23.172;2023-05-18T04:56:27;2.4;1.4;1
74432;PMS7003;62865;53.146;23.172;2023-05-18T05:02:05;3.6;2;1.2
74432;PMS7003;62865;53.146;23.172;2023-05-18T05:07:13;3.3;1.8;1.3
74432;PMS7003;62865;53.146;23.172;2023-05-18T05:11:27;2.8;1.6;1
74432;PMS7003;62865;53.146;23.172;2023-05-18T05:17:13;2.4;2;1.2
74432;PMS7003;62865;53.146;23.172;2023-05-18T05:22:13;2.2;2;1.2
74432;PMS7003;62865;53.146;23.172;2023-05-18T05:26:53;2.8;1.8;1.4
74432;PMS7003;62865;53.146;23.172;2023-05-18T05:31:49;2.6;2.2;1.2
74432;PMS7003;62865;53.146;23.172;2023-05-18T05:36:49;3.4;2;1
74432;PMS7003;62865;53.146;23.172;2023-05-18T05:42:05;3.8;2.8;2
74432;PMS7003;62865;53.146;23.172;2023-05-18T05:46:47;2.6;2;1.2
74432;PMS7003;62865;53.146;23.172;2023-05-18T05:51:51;3;2.2;1.6
74432;PMS7003;62865;53.146;23.172;2023-05-18T05:57:13;3.6;2.6;2
74432;PMS7003;62865;53.146;23.172;2023-05-18T06:02:13;3.4;2.4;1.8
74432;PMS7003;62865;53.146;23.172;2023-05-18T06:06:57;2.2;2.2;1.8
74432;PMS7003;62865;53.146;23.172;2023-05-18T06:11:27;3.2;2.6;1.4
74432;PMS7003;62865;53.146;23.172;2023-05-18T06:16:57;4.2;2.6;2
74432;PMS7003;62865;53.146;23.172;2023-05-18T06:21:27;3.4;2.8;2.6
74432;PMS7003;62865;53.146;23.172;2023-05-18T06:26:28;2.4;1.6;1.4
74432;PMS7003;62865;53.146;23.172;2023-05-18T06:31:59;3.8;2;1.8
74432;PMS7003;62865;53.146;23.172;2023-05-18T06:36:27;2;1.8;1.2
74432;PMS7003;62865;53.146;23.172;2023-05-18T06:42:11;2;1.2;1
74432;PMS7003;62865;53.146;23.172;2023-05-18T06:46:41;1.4;1.2;0.4
74432;PMS7003;62865;53.146;23.172;2023-05-18T06:52:11;2.3;1.5;1
74432;PMS7003;62865;53.146;23.172;2023-05-18T06:56:57;1.2;1.2;0.8
74432;PMS7003;62865;53.146;23.172;2023-05-18T07:02:09;1.4;1.2;1
74432;PMS7003;62865;53.146;23.172;2023-05-18T07:06:33;1.3;1;0.7
74432;PMS7003;62865;53.146;23.172;2023-05-18T07:12:03;0.8;0.8;0.6
74432;PMS7003;62865;53.146;23.172;2023-05-18T07:16:27;1.8;1.6;0.8
74432;PMS7003;62865;53.146;23.172;2023-05-18T07:21:57;1.4;1.2;1
74432;PMS7003;62865;53.146;23.172;2023-05-18T07:26:47;1.6;1.2;0.8
74432;PMS7003;62865;53.146;23.172;2023-05-18T07:31:27;1.6;1.6;0.8
74432;PMS7003;62865;53.146;23.172;2023-05-18T07:37:09;1.4;1;0.6
74432;PMS7003;62865;53.146;23.172;2023-05-18T07:41:37;2;2;1
74432;PMS7003;62865;53.146;23.172;2023-05-18T07:46:27;1;1;1
74432;PMS7003;62865;53.146;23.172;2023-05-18T07:52:09;2.4;2;1.4
74432;PMS7003;62865;53.146;23.172;2023-05-18T07:56:43;1.8;0.8;0.8
74432;PMS7003;62865;53.146;23.172;2023-05-18T08:01:43;1.2;1.2;0.4
74432;PMS7003;62865;53.146;23.172;2023-05-18T08:07:03;1.4;1;0.2
74432;PMS7003;62865;53.146;23.172;2023-05-18T08:12:11;1.4;1.2;0.6
74432;PMS7003;62865;53.146;23.172;2023-05-18T08:16:27;1.2;1;0.6
74432;PMS7003;62865;53.146;23.172;2023-05-18T08:21:39;1.2;0.8;0.6
74432;PMS7003;62865;53.146;23.172;2023-05-18T08:27:11;1;0.8;0.6
74432;PMS7003;62865;53.146;23.172;2023-05-18T08:32:11;1.4;1.4;0.8
74432;PMS7003;62865;53.146;23.172;2023-05-18T08:36:27;1.2;1.2;0.8
74432;PMS7003;62865;53.146;23.172;2023-05-18T08:41:56;1;0.6;0.4
74432;PMS7003;62865;53.146;23.172;2023-05-18T08:47:11;1.6;0.8;0.4
74432;PMS7003;62865;53.146;23.172;2023-05-18T08:51:56;0.8;0.8;0.6
74432;PMS7003;62865;53.146;23.172;2023-05-18T08:56:37;0.8;0.8;0.2
74432;PMS7003;62865;53.146;23.172;2023-05-18T09:01:51;0.8;0.6;0.4
74432;PMS7003;62865;53.146;23.172;2023-05-18T09:06:39;1.4;0.6;0.4
74432;PMS7003;62865;53.146;23.172;2023-05-18T09:11:37;1.6;0.4;0.2
74432;PMS7003;62865;53.146;23.172;2023-05-18T09:16:51;0.8;0.4;0.2
74432;PMS7003;62865;53.146;23.172;2023-05-18T09:21:55;0.8;0.4;0.2
74432;PMS7003;62865;53.146;23.172;2023-05-18T09:26:49;0.8;0.8;0
74432;PMS7003;62865;53.146;23.172;2023-05-18T09:31:49;1;0.6;0.2
74432;PMS7003;62865;53.146;23.172;2023-05-18T09:36:57;1.2;0.8;0.6
74432;PMS7003;62865;53.146;23.172;2023-05-18T09:41:27;0.6;0.2;0
74432;PMS7003;62865;53.146;23.172;2023-05-18T09:47:11;0.2;0;0
74432;PMS7003;62865;53.146;23.172;2023-05-18T09:51:37;0.2;0.2;0
74432;PMS7003;62865;53.146;23.172;2023-05-18T09:57:11;0.2;0.2;0
74432;PMS7003;62865;53.146;23.172;2023-05-18T10:01:55;0.4;0;0
74432;PMS7003;62865;53.146;23.172;2023-05-18T10:07:09;0.4;0;0
74432;PMS7003;62865;53.146;23.172;2023-05-18T10:11:51;1.2;0.6;0.4
74432;PMS7003;62865;53.146;23.172;2023-05-18T10:17:03;0.8;0.4;0.4
74432;PMS7003;62865;53.146;23.172;2023-05-18T10:21:27;0;0;0
74432;PMS7003;62865;53.146;23.172;2023-05-18T10:26:51;0;0;0
74432;PMS7003;62865;53.146;23.172;2023-05-18T10:31:49;0;0;0
74432;PMS7003;62865;53.146;23.172;2023-05-18T10:36:27;0.6;0;0
74432;PMS7003;62865;53.146;23.172;2023-05-18T10:42:11;0;0;0
74432;PMS7003;62865;53.146;23.172;2023-05-18T10:46:43;0.2;0;0
74432;PMS7003;62865;53.146;23.172;2023-05-18T10:51:28;0.2;0;0
74432;PMS7003;62865;53.146;23.172;2023-05-18T10:57:13;0.2;0.2;0.2
74432;PMS7003;62865;53.146;23.172;2023-05-18T11:01:27;0.4;0.2;0
74432;PMS7003;62865;53.146;23.172;2023-05-18T11:06:27;0.6;0.2;0
74432;PMS7003;62865;53.146;23.172;2023-05-18T11:11:55;0.6;0.2;0.2
74432;PMS7003;62865;53.146;23.172;2023-05-18T11:17:14;0.8;0.2;0
74432;PMS7003;62865;53.146;23.172;2023-05-18T11:21:51;0;0;0
74432;PMS7003;62865;53.146;23.172;2023-05-18T11:26:48;0.2;0;0
74432;PMS7003;62865;53.146;23.172;2023-05-18T11:32:20;0.2;0.2;0
74432;PMS7003;62865;53.146;23.172;2023-05-18T11:37:09;0;0;0
74432;PMS7003;62865;53.146;23.172;2023-05-18T11:41:28;0.2;0;0
74432;PMS7003;62865;53.146;23.172;2023-05-18T11:46:27;0.8;0;0
74432;PMS7003;62865;53.146;23.172;2023-05-18T11:52:12;0.8;0.4;0
74432;PMS7003;62865;53.146;23.172;2023-05-18T11:56:47;1;0;0
74432;PMS7003;62865;53.146;23.172;2023-05-18T12:02:03;0.6;0.2;0
74432;PMS7003;62865;53.146;23.172;2023-05-18T12:06:47;0;0;0
74432;PMS7003;62865;53.146;23.172;2023-05-18T12:12:03;0;0;0
74432;PMS7003;62865;53.146;23.172;2023-05-18T12:16:37;0.2;0.2;0
74432;PMS7003;62865;53.146;23.172;2023-05-18T12:21:41;0.4;0.2;0.2
74432;PMS7003;62865;53.146;23.172;2023-05-18T12:27:13;0.2;0.2;0.2
74432;PMS7003;62865;53.146;23.172;2023-05-18T12:31:38;0.6;0.2;0.2
74432;PMS7003;62865;53.146;23.172;2023-05-18T12:37:11;0.8;0.4;0
74432;PMS7003;62865;53.146;23.172;2023-05-18T12:42:13;0.2;0.2;0.2
74432;PMS7003;62865;53.146;23.172;2023-05-18T12:46:37;0.8;0.8;0.3
74432;PMS7003;62865;53.146;23.172;2023-05-18T12:51:55;0.4;0.4;0.2
74432;PMS7003;62865;53.146;23.172;2023-05-18T12:56:51;0.6;0;0
74432;PMS7003;62865;53.146;23.172;2023-05-18T13:01:40;0.2;0.2;0
74432;PMS7003;62865;53.146;23.172;2023-05-18T13:07:05;0.2;0.2;0
74432;PMS7003;62865;53.146;23.172;2023-05-18T13:12:13;0;0;0
74432;PMS7003;62865;53.146;23.172;2023-05-18T13:16:37;0.8;0.4;0.2
74432;PMS7003;62865;53.146;23.172;2023-05-18T13:22:07;0.6;0.4;0
74432;PMS7003;62865;53.146;23.172;2023-05-18T13:27:13;0.6;0.2;0
74432;PMS7003;62865;53.146;23.172;2023-05-18T13:31:59;0.2;0.2;0
74432;PMS7003;62865;53.146;23.172;2023-05-18T13:36:27;0.2;0;0
74432;PMS7003;62865;53.146;23.172;2023-05-18T13:41:49;0.6;0.4;0.2
74432;PMS7003;62865;53.146;23.172;2023-05-18T13:47:03;0.8;0.8;0.2
74432;PMS7003;62865;53.146;23.172;2023-05-18T13:51:29;0.4;0.2;0
74432;PMS7003;62865;53.146;23.172;2023-05-18T13:56:27;1;0.8;0.6
74432;PMS7003;62865;53.146;23.172;2023-05-18T14:02:09;1.2;0.6;0.6
74432;PMS7003;62865;53.146;23.172;2023-05-18T14:06:43;1;0.4;0
74432;PMS7003;62865;53.146;23.172;2023-05-18T14:11:27;0.6;0.6;0.2
74432;PMS7003;62865;53.146;23.172;2023-05-18T14:17:01;0.6;0.6;0.2
74432;PMS7003;62865;53.146;23.172;2023-05-18T14:22:09;0.2;0.2;0.2
74432;PMS7003;62865;53.146;23.172;2023-05-18T14:26:37;0.2;0.2;0
74432;PMS7003;62865;53.146;23.172;2023-05-18T14:31:47;0.8;0.4;0.2
74432;PMS7003;62865;53.146;23.172;2023-05-18T14:37:13;1;1;0.8
74432;PMS7003;62865;53.146;23.172;2023-05-18T14:42:13;1.2;1;0.6
74432;PMS7003;62865;53.146;23.172;2023-05-18T14:46:27;0.8;0.6;0.6
74432;PMS7003;62865;53.146;23.172;2023-05-18T14:51:43;1;0.6;0.6
74432;PMS7003;62865;53.146;23.172;2023-05-18T14:57:13;1.2;1;1
74432;PMS7003;62865;53.146;23.172;2023-05-18T15:01:57;1;0.8;0.6
74432;PMS7003;62865;53.146;23.172;2023-05-18T15:06:53;0.8;0.8;0.6
74432;PMS7003;62865;53.146;23.172;2023-05-18T15:11:53;1;1;0.8
74432;PMS7003;62865;53.146;23.172;2023-05-18T15:17:07;1.4;1;0.8
74432;PMS7003;62865;53.146;23.172;2023-05-18T15:21:27;1.6;1.2;0.8
74432;PMS7003;62865;53.146;23.172;2023-05-18T15:26:27;2.2;1.8;1
74432;PMS7003;62865;53.146;23.172;2023-05-18T15:32:15;1.6;1.6;1
74432;PMS7003;62865;53.146;23.172;2023-05-18T15:36:39;2;1.6;1.4
74432;PMS7003;62865;53.146;23.172;2023-05-18T15:42:15;1.2;1.2;0.6
74432;PMS7003;62865;53.146;23.172;2023-05-18T15:46:47;1.8;1;0.8
74432;PMS7003;62865;53.146;23.172;2023-05-18T15:52:01;1.4;1.4;1
74432;PMS7003;62865;53.146;23.172;2023-05-18T15:56:29;2.2;1.8;1.4
74432;PMS7003;62865;53.146;23.172;2023-05-18T16:01:27;1.8;1.6;1.2
74432;PMS7003;62865;53.146;23.172;2023-05-18T16:06:53;2.2;1.8;1.4
74432;PMS7003;62865;53.146;23.172;2023-05-18T16:12:07;1.2;0.8;0.6
74432;PMS7003;62865;53.146;23.172;2023-05-18T16:16:59;1;1;0.6
74432;PMS7003;62865;53.146;23.172;2023-05-18T16:21:51;1.8;1.2;0.4
74432;PMS7003;62865;53.146;23.172;2023-05-18T16:27:15;1.8;1.8;1.6
74432;PMS7003;62865;53.146;23.172;2023-05-18T16:32:15;1.6;1.6;1.4
74432;PMS7003;62865;53.146;23.172;2023-05-18T16:36:59;1.6;1.4;1.2
74432;PMS7003;62865;53.146;23.172;2023-05-18T16:41:39;2.4;2;2
74432;PMS7003;62865;53.146;23.172;2023-05-18T16:46:27;4.6;3.2;2.6
74432;PMS7003;62865;53.146;23.172;2023-05-18T16:52:05;4.4;3.8;2.2
74432;PMS7003;62865;53.146;23.172;2023-05-18T16:56:41;4;3;2.2
74432;PMS7003;62865;53.146;23.172;2023-05-18T17:01:27;4.8;4.2;3.2
74432;PMS7003;62865;53.146;23.172;2023-05-18T17:07:15;5;3.8;2.8
74432;PMS7003;62865;53.146;23.172;2023-05-18T17:12:15;5;4.2;2.8
74432;PMS7003;62865;53.146;23.172;2023-05-18T17:16:45;4.4;3.8;2.8
74432;PMS7003;62865;53.146;23.172;2023-05-18T17:21:41;5.6;5.4;3.4
74432;PMS7003;62865;53.146;23.172;2023-05-18T17:26:59;9.6;7.6;5.2
74432;PMS7003;62865;53.146;23.172;2023-05-18T17:31:27;8.2;7.8;5
74432;PMS7003;62865;53.146;23.172;2023-05-18T17:36:27;8.8;7.6;5.6
74432;PMS7003;62865;53.146;23.172;2023-05-18T17:41:49;7.6;7.2;5
74432;PMS7003;62865;53.146;23.172;2023-05-18T17:46:51;7.6;6.6;5.2
74432;PMS7003;62865;53.146;23.172;2023-05-18T17:52:16;7.8;7.2;5.2
74432;PMS7003;62865;53.146;23.172;2023-05-18T17:56:45;5.5;5.5;4.3
74432;PMS7003;62865;53.146;23.172;2023-05-18T18:02:13;6.6;5.6;4.6
74432;PMS7003;62865;53.146;23.172;2023-05-18T18:06:55;5.6;4.8;4
74432;PMS7003;62865;53.146;23.172;2023-05-18T18:12:15;6.4;5.6;4.2
74432;PMS7003;62865;53.146;23.172;2023-05-18T18:16:51;5.4;5;4
74432;PMS7003;62865;53.146;23.172;2023-05-18T18:22:05;6.2;5.6;4.2
74432;PMS7003;62865;53.146;23.172;2023-05-18T18:26:39;5.2;4.6;3.4
74432;PMS7003;62865;53.146;23.172;2023-05-18T18:32:03;5.4;4.8;3.2
74432;PMS7003;62865;53.146;23.172;2023-05-18T18:36:41;5.2;4.8;3.6
74432;PMS7003;62865;53.146;23.172;2023-05-18T18:41:27;6.4;5.8;4.8
74432;PMS7003;62865;53.146;23.172;2023-05-18T18:47:17;9.8;8.2;5.8
74432;PMS7003;62865;53.146;23.172;2023-05-18T18:52:03;8.8;7.4;5.4
74432;PMS7003;62865;53.146;23.172;2023-05-18T18:56:37;10;8.6;6
74432;PMS7003;62865;53.146;23.172;2023-05-18T19:01:59;10.4;9.2;6.4
74432;PMS7003;62865;53.146;23.172;2023-05-18T19:06:27;11;10;6.4
74432;PMS7003;62865;53.146;23.172;2023-05-18T19:11:39;10.4;9.4;6.6
74432;PMS7003;62865;53.146;23.172;2023-05-18T19:17:03;13.2;12.4;8.8
74432;PMS7003;62865;53.146;23.172;2023-05-18T19:22:13;12.8;11;8.4
74432;PMS7003;62865;53.146;23.172;2023-05-18T19:26:51;12.2;10.2;6.8
74432;PMS7003;62865;53.146;23.172;2023-05-18T19:32:13;13;11.6;8.6
74432;PMS7003;62865;53.146;23.172;2023-05-18T19:37:15;16.8;14.4;9.4
74432;PMS7003;62865;53.146;23.172;2023-05-18T19:42:01;12.4;11.2;7.6
74432;PMS7003;62865;53.146;23.172;2023-05-18T19:46:51;11;8.4;6.6
74432;PMS7003;62865;53.146;23.172;2023-05-18T19:52:07;16.2;14.6;9.6
74432;PMS7003;62865;53.146;23.172;2023-05-18T19:57:07;7.8;7;5.2
74432;PMS7003;62865;53.146;23.172;2023-05-18T20:01:57;7.6;6.8;5.2
74432;PMS7003;62865;53.146;23.172;2023-05-18T20:06:27;5.6;5.4;4
74432;PMS7003;62865;53.146;23.172;2023-05-18T20:12:15;7.2;6;4.6
74432;PMS7003;62865;53.146;23.172;2023-05-18T20:17:17;6.2;5.8;4.4
74432;PMS7003;62865;53.146;23.172;2023-05-18T20:21:47;5.4;5.4;3.6
74432;PMS7003;62865;53.146;23.172;2023-05-18T20:26:27;7.8;6;4.4
74432;PMS7003;62865;53.146;23.172;2023-05-18T20:32:01;8.8;7;5.2
74432;PMS7003;62865;53.146;23.172;2023-05-18T20:36:27;7.2;6.4;4.6
74432;PMS7003;62865;53.146;23.172;2023-05-18T20:41:51;7.2;6.4;5.4
74432;PMS7003;62865;53.146;23.172;2023-05-18T20:46:29;10;8.6;6.4
74432;PMS7003;62865;53.146;23.172;2023-05-18T20:51:39;6.4;6;4.4
74432;PMS7003;62865;53.146;23.172;2023-05-18T20:57:15;6.8;6.2;4.4
74432;PMS7003;62865;53.146;23.172;2023-05-18T21:01:45;7.4;6.8;4.8
74432;PMS7003;62865;53.146;23.172;2023-05-18T21:07:13;7.2;6.6;4.8
74432;PMS7003;62865;53.146;23.172;2023-05-18T21:11:59;6.2;5.8;3.8
74432;PMS7003;62865;53.146;23.172;2023-05-18T21:17:13;7;6.6;5
74432;PMS7003;62865;53.146;23.172;2023-05-18T21:21:27;12.2;10.6;7.8
74432;PMS7003;62865;53.146;23.172;2023-05-18T21:27:05;13.8;12.4;9
74432;PMS7003;62865;53.146;23.172;2023-05-18T21:31:45;13.4;11.4;7.8
74432;PMS7003;62865;53.146;23.172;2023-05-18T21:36:57;10;9;6.4
74432;PMS7003;62865;53.146;23.172;2023-05-18T21:41:51;12.4;10.2;7.2
74432;PMS7003;62865;53.146;23.172;2023-05-18T21:46:37;12.6;11.4;8.2
74432;PMS7003;62865;53.146;23.172;2023-05-18T21:51:59;11;10.2;7
74432;PMS7003;62865;53.146;23.172;2023-05-18T21:56:45;12.2;10.6;7.4
74432;PMS7003;62865;53.146;23.172;2023-05-18T22:01:27;11;9.8;6.6
74432;PMS7003;62865;53.146;23.172;2023-05-18T22:07:05;15.4;13.4;9
74432;PMS7003;62865;53.146;23.172;2023-05-18T22:11:37;10.8;9.8;7
74432;PMS7003;62865;53.146;23.172;2023-05-18T22:16:27;12.6;10.6;6.8
74432;PMS7003;62865;53.146;23.172;2023-05-18T22:21:53;12;10.8;7.6
74432;PMS7003;62865;53.146;23.172;2023-05-18T22:27:13;9.8;9.4;6.6
74432;PMS7003;62865;53.146;23.172;2023-05-18T22:31:27;9;8.2;7
74432;PMS7003;62865;53.146;23.172;2023-05-18T22:36:51;8.4;7.6;5.8
74432;PMS7003;62865;53.146;23.172;2023-05-18T22:42:13;9.4;8.4;6
74432;PMS7003;62865;53.146;23.172;2023-05-18T22:47:13;8.4;7.4;5.8
74432;PMS7003;62865;53.146;23.172;2023-05-18T22:51:59;9;7.8;6.2
74432;PMS7003;62865;53.146;23.172;2023-05-18T22:56:45;11.4;9.4;6.8
74432;PMS7003;62865;53.146;23.172;2023-05-18T23:02:11;10.6;9.2;6.4
74432;PMS7003;62865;53.146;23.172;2023-05-18T23:06:53;9.5;8.5;6
74432;PMS7003;62865;53.146;23.172;2023-05-18T23:11:27;8;6.8;5
74432;PMS7003;62865;53.146;23.172;2023-05-18T23:17:11;9.4;7.6;5.4
74432;PMS7003;62865;53.146;23.172;2023-05-18T23:22:11;11.2;9.2;5.8
74432;PMS7003;62865;53.146;23.172;2023-05-18T23:26:39;11.4;9.2;6.4
74432;PMS7003;62865;53.146;23.172;2023-05-18T23:31:39;9.6;8.2;5.8
74432;PMS7003;62865;53.146;23.172;2023-05-18T23:36:59;7.6;6.2;4.8
74432;PMS7003;62865;53.146;23.172;2023-05-18T23:41:37;7.4;6.4;4.8
74432;PMS7003;62865;53.146;23.172;2023-05-18T23:46:51;8.2;7.6;5.6
74432;PMS7003;62865;53.146;23.172;2023-05-18T23:51:59;8;7;5
74432;PMS7003;62865;53.146;23.172;2023-05-18T23:56:37;7.4;6;4.6
